sensor_id;sensor_type;location;lat;lon;timestamp;pressure;altitude;pressure_sealevel;temperature;humidity
31225;BME280;17847;31.524;74.366;2023-08-07T00:03:42;97054.38;;;30.58;100.00
31225;BME280;17847;31.524;74.366;2023-08-07T00:06:11;97079.44;;;30.60;100.00
31225;BME280;17847;31.524;74.366;2023-08-07T00:08:41;97078.59;;;30.18;100.00
31225;BME280;17847;31.524;74.366;2023-08-07T00:11:11;97077.56;;;30.07;100.00
31225;BME280;17847;31.524;74.366;2023-08-07T00:13:40;97083.69;;;30.00;100.00
31225;BME280;17847;31.524;74.366;2023-08-07T00:16:09;97085.47;;;29.77;100.00
31225;BME280;17847;31.524;74.366;2023-08-07T00:18:39;97090.06;;;29.73;100.00
31225;BME280;17847;31.524;74.366;2023-08-07T00:21:08;97070.72;;;29.62;100.00
31225;BME280;17847;31.524;74.366;2023-08-07T00:23:37;97069.84;;;29.58;100.00
31225;BME280;17847;31.524;74.366;2023-08-07T00:26:07;97087.63;;;29.68;100.00
31225;BME280;17847;31.524;74.366;2023-08-07T00:28:36;97097.94;;;29.59;100.00
31225;BME280;17847;31.524;74.366;2023-08-07T00:31:24;97091.78;;;29.46;100.00
31225;BME280;17847;31.524;74.366;2023-08-07T00:33:53;97113.69;;;29.50;100.00
31225;BME280;17847;31.524;74.366;2023-08-07T00:36:24;97113.63;;;29.46;100.00
31225;BME280;17847;31.524;74.366;2023-08-07T00:38:54;97126.72;;;29.40;100.00
31225;BME280;17847;31.524;74.366;2023-08-07T00:41:24;97121.81;;;29.30;100.00
31225;BME280;17847;31.524;74.366;2023-08-07T00:43:53;97117.81;;;29.12;100.00
31225;BME280;17847;31.524;74.366;2023-08-07T00:46:23;97117.72;;;29.09;100.00
31225;BME280;17847;31.524;74.366;2023-08-07T00:48:53;97120.47;;;29.24;100.00
31225;BME280;17847;31.524;74.366;2023-08-07T00:51:23;97130.31;;;29.13;100.00
31225;BME280;17847;31.524;74.366;2023-08-07T00:53:53;97134.25;;;29.00;100.00
31225;BME280;17847;31.524;74.366;2023-08-07T00:56:24;97125.44;;;28.91;100.00
31225;BME280;17847;31.524;74.366;2023-08-07T00:58:54;97131.59;;;28.88;100.00
31225;BME280;17847;31.524;74.366;2023-08-07T01:01:25;97129.69;;;28.88;100.00
31225;BME280;17847;31.524;74.366;2023-08-07T01:03:55;97123.50;;;28.76;100.00
31225;BME280;17847;31.524;74.366;2023-08-07T01:06:24;97130.38;;;28.85;100.00
31225;BME280;17847;31.524;74.366;2023-08-07T01:08:54;97121.97;;;29.06;100.00
31225;BME280;17847;31.524;74.366;2023-08-07T01:11:48;97127.50;;;29.10;100.00
31225;BME280;17847;31.524;74.366;2023-08-07T01:17:08;97120.13;;;29.10;100.00
31225;BME280;17847;31.524;74.366;2023-08-07T01:19:39;97109.22;;;29.10;100.00
31225;BME280;17847;31.524;74.366;2023-08-07T01:22:17;97100.41;;;29.17;100.00
31225;BME280;17847;31.524;74.366;2023-08-07T01:24:49;97116.50;;;29.06;100.00
31225;BME280;17847;31.524;74.366;2023-08-07T01:33:09;97143.38;;;29.51;100.00
31225;BME280;17847;31.524;74.366;2023-08-07T01:35:49;97152.66;;;29.19;100.00
31225;BME280;17847;31.524;74.366;2023-08-07T01:38:24;97157.06;;;29.08;100.00
31225;BME280;17847;31.524;74.366;2023-08-07T01:40:56;97156.81;;;29.28;100.00
31225;BME280;17847;31.524;74.366;2023-08-07T01:43:27;97167.97;;;29.23;100.00
31225;BME280;17847;31.524;74.366;2023-08-07T01:45:56;97170.69;;;29.23;100.00
31225;BME280;17847;31.524;74.366;2023-08-07T01:48:27;97185.59;;;29.41;100.00
31225;BME280;17847;31.524;74.366;2023-08-07T01:50:57;97201.63;;;29.59;100.00
31225;BME280;17847;31.524;74.366;2023-08-07T01:53:26;97216.31;;;29.70;100.00
31225;BME280;17847;31.524;74.366;2023-08-07T01:55:55;97216.75;;;29.72;100.00
31225;BME280;17847;31.524;74.366;2023-08-07T01:58:25;97214.03;;;29.72;100.00
31225;BME280;17847;31.524;74.366;2023-08-07T02:00:55;97218.28;;;29.69;100.00
31225;BME280;17847;31.524;74.366;2023-08-07T02:03:26;97225.41;;;29.74;100.00
31225;BME280;17847;31.524;74.366;2023-08-07T02:05:55;97234.53;;;29.81;100.00
31225;BME280;17847;31.524;74.366;2023-08-07T02:08:26;97240.53;;;29.87;100.00
31225;BME280;17847;31.524;74.366;2023-08-07T02:10:55;97247.47;;;29.84;100.00
31225;BME280;17847;31.524;74.366;2023-08-07T02:13:26;97235.59;;;29.93;100.00
31225;BME280;17847;31.524;74.366;2023-08-07T02:15:55;97249.50;;;29.72;100.00
31225;BME280;17847;31.524;74.366;2023-08-07T02:18:26;97247.22;;;29.58;100.00
31225;BME280;17847;31.524;74.366;2023-08-07T02:20:55;97239.13;;;29.62;100.00
31225;BME280;17847;31.524;74.366;2023-08-07T02:23:25;97246.41;;;29.58;100.00
31225;BME280;17847;31.524;74.366;2023-08-07T02:25:57;97242.91;;;29.57;100.00
31225;BME280;17847;31.524;74.366;2023-08-07T02:28:26;97244.41;;;29.55;100.00
31225;BME280;17847;31.524;74.366;2023-08-07T02:30:56;97239.13;;;29.62;100.00
31225;BME280;17847;31.524;74.366;2023-08-07T02:33:43;97261.13;;;29.53;100.00
31225;BME280;17847;31.524;74.366;2023-08-07T02:36:13;97307.06;;;29.51;100.00
31225;BME280;17847;31.524;74.366;2023-08-07T02:38:42;97292.06;;;29.17;100.00
31225;BME280;17847;31.524;74.366;2023-08-07T02:41:12;97297.25;;;29.07;100.00
31225;BME280;17847;31.524;74.366;2023-08-07T02:43:41;97296.34;;;28.75;100.00
31225;BME280;17847;31.524;74.366;2023-08-07T02:46:13;97296.78;;;28.65;100.00
31225;BME280;17847;31.524;74.366;2023-08-07T02:48:44;97294.84;;;28.65;100.00
31225;BME280;17847;31.524;74.366;2023-08-07T02:51:32;97295.22;;;28.51;100.00
31225;BME280;17847;31.524;74.366;2023-08-07T02:54:20;97280.81;;;28.39;100.00
31225;BME280;17847;31.524;74.366;2023-08-07T02:56:49;97280.38;;;28.37;100.00
31225;BME280;17847;31.524;74.366;2023-08-07T02:59:37;97277.97;;;28.47;100.00
31225;BME280;17847;31.524;74.366;2023-08-07T03:02:06;97269.88;;;28.51;100.00
31225;BME280;17847;31.524;74.366;2023-08-07T03:04:36;97269.63;;;28.68;100.00
31225;BME280;17847;31.524;74.366;2023-08-07T03:07:07;97258.34;;;28.94;100.00
31225;BME280;17847;31.524;74.366;2023-08-07T03:09:36;97238.94;;;29.11;100.00
31225;BME280;17847;31.524;74.366;2023-08-07T03:12:06;97237.53;;;29.29;100.00
31225;BME280;17847;31.524;74.366;2023-08-07T03:14:35;97235.34;;;29.51;100.00
31225;BME280;17847;31.524;74.366;2023-08-07T03:17:05;97230.66;;;29.67;100.00
31225;BME280;17847;31.524;74.366;2023-08-07T03:19:35;97226.19;;;29.90;99.33
31225;BME280;17847;31.524;74.366;2023-08-07T03:22:04;97227.22;;;30.01;99.39
31225;BME280;17847;31.524;74.366;2023-08-07T03:24:34;97211.72;;;30.05;98.47
31225;BME280;17847;31.524;74.366;2023-08-07T03:27:22;97201.25;;;30.07;96.57
31225;BME280;17847;31.524;74.366;2023-08-07T03:29:51;97199.56;;;30.38;99.91
31225;BME280;17847;31.524;74.366;2023-08-07T03:32:25;97196.19;;;30.44;97.69
31225;BME280;17847;31.524;74.366;2023-08-07T03:34:54;97199.06;;;30.67;94.42
31225;BME280;17847;31.524;74.366;2023-08-07T03:37:24;97191.50;;;30.60;94.13
31225;BME280;17847;31.524;74.366;2023-08-07T03:39:54;97178.47;;;30.73;93.90
31225;BME280;17847;31.524;74.366;2023-08-07T03:42:24;97173.84;;;30.96;93.92
31225;BME280;17847;31.524;74.366;2023-08-07T03:45:12;97177.31;;;30.93;94.60
31225;BME280;17847;31.524;74.366;2023-08-07T03:47:41;97161.81;;;30.43;92.29
31225;BME280;17847;31.524;74.366;2023-08-07T03:50:11;97172.00;;;30.62;93.88
31225;BME280;17847;31.524;74.366;2023-08-07T03:52:40;97159.44;;;30.99;91.63
31225;BME280;17847;31.524;74.366;2023-08-07T03:55:10;97169.81;;;31.09;91.06
31225;BME280;17847;31.524;74.366;2023-08-07T03:57:40;97170.22;;;31.11;90.63
31225;BME280;17847;31.524;74.366;2023-08-07T04:00:11;97175.47;;;31.20;92.05
31225;BME280;17847;31.524;74.366;2023-08-07T04:02:40;97177.47;;;31.23;91.12
31225;BME280;17847;31.524;74.366;2023-08-07T04:05:13;97178.03;;;31.32;89.38
31225;BME280;17847;31.524;74.366;2023-08-07T04:07:42;97185.97;;;31.60;88.81
31225;BME280;17847;31.524;74.366;2023-08-07T04:10:11;97181.91;;;31.77;86.58
31225;BME280;17847;31.524;74.366;2023-08-07T04:12:41;97171.09;;;32.10;89.80
31225;BME280;17847;31.524;74.366;2023-08-07T04:15:10;97167.97;;;31.85;86.84
31225;BME280;17847;31.524;74.366;2023-08-07T04:17:39;97158.22;;;31.88;85.73
31225;BME280;17847;31.524;74.366;2023-08-07T04:20:09;97164.09;;;32.13;86.87
31225;BME280;17847;31.524;74.366;2023-08-07T04:25:26;97156.50;;;32.62;84.08
31225;BME280;17847;31.524;74.366;2023-08-07T04:27:55;97152.63;;;33.00;81.62
31225;BME280;17847;31.524;74.366;2023-08-07T04:30:25;97162.91;;;32.73;82.06
31225;BME280;17847;31.524;74.366;2023-08-07T04:32:54;97171.66;;;32.52;82.12
31225;BME280;17847;31.524;74.366;2023-08-07T04:35:24;97173.94;;;32.47;81.98
31225;BME280;17847;31.524;74.366;2023-08-07T04:37:53;97169.34;;;32.58;81.95
31225;BME280;17847;31.524;74.366;2023-08-07T04:40:23;97162.75;;;32.92;85.37
31225;BME280;17847;31.524;74.366;2023-08-07T04:42:52;97170.47;;;32.83;83.94
31225;BME280;17847;31.524;74.366;2023-08-07T04:45:22;97176.75;;;32.54;82.66
31225;BME280;17847;31.524;74.366;2023-08-07T04:47:51;97177.66;;;32.95;83.45
31225;BME280;17847;31.524;74.366;2023-08-07T04:50:21;97188.88;;;33.16;81.68
31225;BME280;17847;31.524;74.366;2023-08-07T04:52:51;97182.22;;;33.61;80.51
31225;BME280;17847;31.524;74.366;2023-08-07T04:55:29;97190.78;;;34.04;77.38
31225;BME280;17847;31.524;74.366;2023-08-07T04:57:58;97193.34;;;33.75;78.00
31225;BME280;17847;31.524;74.366;2023-08-07T05:00:29;97204.16;;;34.05;76.61
31225;BME280;17847;31.524;74.366;2023-08-07T05:03:16;97202.72;;;34.18;75.08
31225;BME280;17847;31.524;74.366;2023-08-07T05:05:48;97215.97;;;34.71;74.78
31225;BME280;17847;31.524;74.366;2023-08-07T05:08:17;97215.66;;;35.01;76.21
31225;BME280;17847;31.524;74.366;2023-08-07T05:10:48;97205.44;;;34.94;73.21
31225;BME280;17847;31.524;74.366;2023-08-07T05:13:17;97209.78;;;34.99;73.47
31225;BME280;17847;31.524;74.366;2023-08-07T05:15:50;97212.91;;;35.01;72.67
31225;BME280;17847;31.524;74.366;2023-08-07T05:18:19;97208.63;;;35.07;72.79
31225;BME280;17847;31.524;74.366;2023-08-07T05:20:48;97208.59;;;34.96;73.77
31225;BME280;17847;31.524;74.366;2023-08-07T05:23:36;97216.28;;;34.62;74.37
31225;BME280;17847;31.524;74.366;2023-08-07T05:26:05;97226.91;;;34.60;73.51
31225;BME280;17847;31.524;74.366;2023-08-07T05:28:35;97216.41;;;34.84;75.98
31225;BME280;17847;31.524;74.366;2023-08-07T05:31:04;97219.63;;;35.03;78.65
31225;BME280;17847;31.524;74.366;2023-08-07T05:33:33;97213.63;;;34.77;75.63
31225;BME280;17847;31.524;74.366;2023-08-07T05:36:03;97216.03;;;34.92;73.45
31225;BME280;17847;31.524;74.366;2023-08-07T05:38:34;97218.47;;;35.11;73.54
31225;BME280;17847;31.524;74.366;2023-08-07T05:41:03;97223.13;;;34.90;74.62
31225;BME280;17847;31.524;74.366;2023-08-07T05:43:33;97222.44;;;35.21;76.00
31225;BME280;17847;31.524;74.366;2023-08-07T05:46:02;97214.56;;;35.20;74.76
31225;BME280;17847;31.524;74.366;2023-08-07T05:48:32;97208.75;;;35.49;75.54
31225;BME280;17847;31.524;74.366;2023-08-07T05:51:02;97207.53;;;35.50;74.26
31225;BME280;17847;31.524;74.366;2023-08-07T05:53:31;97205.88;;;35.07;75.05
31225;BME280;17847;31.524;74.366;2023-08-07T05:56:00;97209.09;;;35.30;74.02
31225;BME280;17847;31.524;74.366;2023-08-07T05:58:30;97198.00;;;35.05;73.30
31225;BME280;17847;31.524;74.366;2023-08-07T06:00:59;97204.78;;;35.40;75.31
31225;BME280;17847;31.524;74.366;2023-08-07T06:03:28;97193.34;;;35.20;72.62
31225;BME280;17847;31.524;74.366;2023-08-07T06:06:17;97196.09;;;35.20;73.62
31225;BME280;17847;31.524;74.366;2023-08-07T06:08:48;97181.84;;;34.90;76.23
31225;BME280;17847;31.524;74.366;2023-08-07T06:11:17;97177.56;;;35.06;77.19
31225;BME280;17847;31.524;74.366;2023-08-07T06:13:48;97174.38;;;34.94;76.34
31225;BME280;17847;31.524;74.366;2023-08-07T06:16:18;97175.16;;;34.87;75.25
31225;BME280;17847;31.524;74.366;2023-08-07T06:18:50;97162.59;;;34.97;76.39
31225;BME280;17847;31.524;74.366;2023-08-07T06:21:20;97164.13;;;34.77;76.54
31225;BME280;17847;31.524;74.366;2023-08-07T06:23:50;97160.94;;;34.71;77.40
31225;BME280;17847;31.524;74.366;2023-08-07T06:26:19;97153.44;;;34.64;79.37
31225;BME280;17847;31.524;74.366;2023-08-07T06:28:49;97143.59;;;34.63;79.57
31225;BME280;17847;31.524;74.366;2023-08-07T06:31:18;97151.44;;;34.61;81.29
31225;BME280;17847;31.524;74.366;2023-08-07T06:34:06;97142.69;;;34.35;79.75
31225;BME280;17847;31.524;74.366;2023-08-07T06:36:36;97150.16;;;34.31;80.40
31225;BME280;17847;31.524;74.366;2023-08-07T06:39:05;97156.31;;;34.13;82.34
31225;BME280;17847;31.524;74.366;2023-08-07T06:41:35;97143.72;;;34.09;81.73
31225;BME280;17847;31.524;74.366;2023-08-07T06:44:05;97143.50;;;34.35;81.51
31225;BME280;17847;31.524;74.366;2023-08-07T06:46:35;97139.56;;;34.36;80.75
31225;BME280;17847;31.524;74.366;2023-08-07T06:49:04;97140.75;;;34.35;82.24
31225;BME280;17847;31.524;74.366;2023-08-07T06:51:33;97139.63;;;34.43;83.75
31225;BME280;17847;31.524;74.366;2023-08-07T06:54:04;97139.69;;;34.61;83.87
31225;BME280;17847;31.524;74.366;2023-08-07T06:56:33;97139.28;;;34.62;82.88
31225;BME280;17847;31.524;74.366;2023-08-07T06:59:03;97134.88;;;34.40;84.44
31225;BME280;17847;31.524;74.366;2023-08-07T07:01:32;97129.75;;;34.35;81.05
31225;BME280;17847;31.524;74.366;2023-08-07T07:04:02;97132.47;;;34.28;81.84
31225;BME280;17847;31.524;74.366;2023-08-07T07:06:31;97139.19;;;34.34;82.35
31225;BME280;17847;31.524;74.366;2023-08-07T07:09:01;97133.69;;;34.34;81.68
31225;BME280;17847;31.524;74.366;2023-08-07T07:11:30;97137.59;;;34.33;85.09
31225;BME280;17847;31.524;74.366;2023-08-07T07:13:59;97142.66;;;34.24;88.37
31225;BME280;17847;31.524;74.366;2023-08-07T07:16:29;97148.03;;;34.03;86.77
31225;BME280;17847;31.524;74.366;2023-08-07T07:18:58;97140.53;;;34.00;87.46
31225;BME280;17847;31.524;74.366;2023-08-07T07:21:29;97144.84;;;34.01;88.96
31225;BME280;17847;31.524;74.366;2023-08-07T07:23:58;97147.25;;;34.06;88.06
31225;BME280;17847;31.524;74.366;2023-08-07T07:26:27;97139.00;;;34.06;87.96
31225;BME280;17847;31.524;74.366;2023-08-07T07:29:16;97145.53;;;33.83;88.17
31225;BME280;17847;31.524;74.366;2023-08-07T07:31:46;97136.88;;;33.81;90.30
31225;BME280;17847;31.524;74.366;2023-08-07T07:34:15;97141.53;;;33.70;89.43
31225;BME280;17847;31.524;74.366;2023-08-07T07:36:45;97132.78;;;33.61;88.88
31225;BME280;17847;31.524;74.366;2023-08-07T07:39:14;97126.81;;;33.45;90.10
31225;BME280;17847;31.524;74.366;2023-08-07T07:41:44;97122.94;;;33.53;92.00
31225;BME280;17847;31.524;74.366;2023-08-07T07:44:13;97131.06;;;33.42;89.33
31225;BME280;17847;31.524;74.366;2023-08-07T07:46:45;97125.34;;;33.62;93.80
31225;BME280;17847;31.524;74.366;2023-08-07T07:49:14;97119.81;;;33.55;90.67
31225;BME280;17847;31.524;74.366;2023-08-07T07:51:44;97118.66;;;33.59;90.72
31225;BME280;17847;31.524;74.366;2023-08-07T07:54:15;97122.59;;;33.58;90.49
31225;BME280;17847;31.524;74.366;2023-08-07T07:59:32;97111.19;;;33.60;89.90
31225;BME280;17847;31.524;74.366;2023-08-07T08:02:02;97116.56;;;33.42;92.05
31225;BME280;17847;31.524;74.366;2023-08-07T08:04:32;97115.75;;;33.38;92.30
31225;BME280;17847;31.524;74.366;2023-08-07T08:07:04;97108.97;;;33.25;89.68
31225;BME280;17847;31.524;74.366;2023-08-07T08:09:35;97111.38;;;33.33;91.44
31225;BME280;17847;31.524;74.366;2023-08-07T08:12:05;97119.31;;;33.42;92.55
31225;BME280;17847;31.524;74.366;2023-08-07T08:14:35;97101.91;;;33.24;89.49
31225;BME280;17847;31.524;74.366;2023-08-07T08:17:22;97106.31;;;33.35;94.54
31225;BME280;17847;31.524;74.366;2023-08-07T08:19:52;97105.16;;;33.36;92.29
31225;BME280;17847;31.524;74.366;2023-08-07T08:22:21;97105.56;;;33.38;91.43
31225;BME280;17847;31.524;74.366;2023-08-07T08:24:50;97104.53;;;33.61;92.62
31225;BME280;17847;31.524;74.366;2023-08-07T08:27:20;97100.00;;;33.82;91.70
31225;BME280;17847;31.524;74.366;2023-08-07T08:29:50;97092.19;;;33.92;88.62
31225;BME280;17847;31.524;74.366;2023-08-07T08:32:20;97098.13;;;33.94;88.66
31225;BME280;17847;31.524;74.366;2023-08-07T08:35:08;97090.69;;;33.98;88.81
31225;BME280;17847;31.524;74.366;2023-08-07T08:37:37;97087.50;;;33.96;87.82
31225;BME280;17847;31.524;74.366;2023-08-07T08:40:08;97083.25;;;34.02;90.12
31225;BME280;17847;31.524;74.366;2023-08-07T08:42:40;97095.38;;;33.97;89.69
31225;BME280;17847;31.524;74.366;2023-08-07T08:45:13;97092.63;;;33.94;90.53
31225;BME280;17847;31.524;74.366;2023-08-07T08:47:43;97090.25;;;33.89;89.96
31225;BME280;17847;31.524;74.366;2023-08-07T08:50:14;97090.63;;;33.91;89.07
31225;BME280;17847;31.524;74.366;2023-08-07T08:52:45;97084.47;;;34.15;88.11
31225;BME280;17847;31.524;74.366;2023-08-07T08:55:15;97090.06;;;34.33;86.48
31225;BME280;17847;31.524;74.366;2023-08-07T08:57:45;97087.69;;;34.24;87.15
31225;BME280;17847;31.524;74.366;2023-08-07T09:00:15;97088.06;;;34.19;87.88
31225;BME280;17847;31.524;74.366;2023-08-07T09:02:52;97087.69;;;34.24;88.19
31225;BME280;17847;31.524;74.366;2023-08-07T09:05:22;97077.50;;;34.35;87.80
31225;BME280;17847;31.524;74.366;2023-08-07T09:08:10;97075.59;;;34.50;86.45
31225;BME280;17847;31.524;74.366;2023-08-07T09:10:58;97070.53;;;34.66;86.20
31225;BME280;17847;31.524;74.366;2023-08-07T09:13:28;97082.31;;;34.63;85.12
31225;BME280;17847;31.524;74.366;2023-08-07T09:15:59;97070.50;;;34.62;84.70
31225;BME280;17847;31.524;74.366;2023-08-07T09:18:29;97070.16;;;34.67;86.81
31225;BME280;17847;31.524;74.366;2023-08-07T09:24:06;97070.13;;;34.64;83.88
31225;BME280;17847;31.524;74.366;2023-08-07T09:26:36;97072.47;;;34.65;82.27
31225;BME280;17847;31.524;74.366;2023-08-07T09:29:06;97080.78;;;34.69;80.79
31225;BME280;17847;31.524;74.366;2023-08-07T09:31:43;97073.75;;;34.79;80.21
31225;BME280;17847;31.524;74.366;2023-08-07T09:34:20;97073.31;;;34.80;79.10
31225;BME280;17847;31.524;74.366;2023-08-07T09:36:50;97067.44;;;34.78;79.95
31225;BME280;17847;31.524;74.366;2023-08-07T09:39:23;97063.13;;;34.81;79.70
31225;BME280;17847;31.524;74.366;2023-08-07T09:42:15;97060.34;;;34.88;83.38
31225;BME280;17847;31.524;74.366;2023-08-07T09:44:46;97058.81;;;34.94;82.49
31225;BME280;17847;31.524;74.366;2023-08-07T09:47:18;97054.84;;;34.88;80.15
31225;BME280;17847;31.524;74.366;2023-08-07T09:49:48;97056.44;;;34.89;83.40
31225;BME280;17847;31.524;74.366;2023-08-07T09:52:24;97049.34;;;34.81;81.18
31225;BME280;17847;31.524;74.366;2023-08-07T09:54:58;97044.66;;;34.74;82.38
31225;BME280;17847;31.524;74.366;2023-08-07T09:57:27;97041.50;;;34.72;82.41
31225;BME280;17847;31.524;74.366;2023-08-07T09:59:57;97040.31;;;34.77;82.97
31225;BME280;17847;31.524;74.366;2023-08-07T10:02:48;97038.75;;;34.68;86.08
31225;BME280;17847;31.524;74.366;2023-08-07T10:05:18;97037.50;;;34.59;84.37
31225;BME280;17847;31.524;74.366;2023-08-07T10:07:48;97041.44;;;34.58;83.50
31225;BME280;17847;31.524;74.366;2023-08-07T10:10:19;97043.03;;;34.66;82.69
31225;BME280;17847;31.524;74.366;2023-08-07T10:12:49;97054.06;;;34.73;83.00
31225;BME280;17847;31.524;74.366;2023-08-07T10:15:19;97046.19;;;34.75;82.06
31225;BME280;17847;31.524;74.366;2023-08-07T10:17:48;97040.69;;;34.75;82.05
31225;BME280;17847;31.524;74.366;2023-08-07T10:20:19;97041.91;;;34.78;82.79
31225;BME280;17847;31.524;74.366;2023-08-07T10:22:51;97032.47;;;34.82;81.50
31225;BME280;17847;31.524;74.366;2023-08-07T10:25:22;97040.34;;;34.87;81.81
31225;BME280;17847;31.524;74.366;2023-08-07T10:27:55;97035.59;;;34.84;82.37
31225;BME280;17847;31.524;74.366;2023-08-07T10:30:26;97039.16;;;34.81;80.66
31225;BME280;17847;31.524;74.366;2023-08-07T10:32:58;97045.41;;;34.75;81.35
31225;BME280;17847;31.524;74.366;2023-08-07T10:35:32;97043.00;;;34.59;83.51
31225;BME280;17847;31.524;74.366;2023-08-07T10:38:09;97041.50;;;34.68;81.95
31225;BME280;17847;31.524;74.366;2023-08-07T10:41:13;97037.56;;;34.69;81.95
31225;BME280;17847;31.524;74.366;2023-08-07T10:43:45;97031.63;;;34.64;80.75
31225;BME280;17847;31.524;74.366;2023-08-07T10:46:20;97028.53;;;34.69;80.67
31225;BME280;17847;31.524;74.366;2023-08-07T10:51:45;97027.75;;;34.68;80.56
31225;BME280;17847;31.524;74.366;2023-08-07T10:54:16;97033.97;;;34.65;79.58
31225;BME280;17847;31.524;74.366;2023-08-07T10:56:54;97024.16;;;34.61;80.99
31225;BME280;17847;31.524;74.366;2023-08-07T10:59:24;97027.31;;;34.59;81.52
31225;BME280;17847;31.524;74.366;2023-08-07T11:01:55;97029.66;;;34.64;81.14
31225;BME280;17847;31.524;74.366;2023-08-07T11:04:25;97026.53;;;34.66;81.62
31225;BME280;17847;31.524;74.366;2023-08-07T11:06:55;97028.47;;;34.62;80.68
31225;BME280;17847;31.524;74.366;2023-08-07T11:09:25;97026.50;;;34.62;79.92
31225;BME280;17847;31.524;74.366;2023-08-07T11:11:55;97019.44;;;34.61;81.41
31225;BME280;17847;31.524;74.366;2023-08-07T11:14:25;97028.88;;;34.60;79.09
31225;BME280;17847;31.524;74.366;2023-08-07T11:16:55;97032.00;;;34.59;83.00
31225;BME280;17847;31.524;74.366;2023-08-07T11:19:26;97035.94;;;34.47;80.27
31225;BME280;17847;31.524;74.366;2023-08-07T11:22:08;97025.63;;;34.19;83.78
31225;BME280;17847;31.524;74.366;2023-08-07T11:24:39;97029.88;;;34.06;81.12
31225;BME280;17847;31.524;74.366;2023-08-07T11:27:08;97022.34;;;33.86;82.06
31225;BME280;17847;31.524;74.366;2023-08-07T11:29:38;97016.00;;;33.78;85.42
31225;BME280;17847;31.524;74.366;2023-08-07T11:32:09;97028.41;;;33.54;85.33
31225;BME280;17847;31.524;74.366;2023-08-07T11:34:38;97020.34;;;33.21;82.55
31225;BME280;17847;31.524;74.366;2023-08-07T11:37:15;97013.88;;;32.99;85.76
31225;BME280;17847;31.524;74.366;2023-08-07T11:39:46;97022.41;;;32.87;84.08
31225;BME280;17847;31.524;74.366;2023-08-07T11:42:15;97027.06;;;32.83;85.19
31225;BME280;17847;31.524;74.366;2023-08-07T11:44:45;97020.44;;;32.87;85.84
31225;BME280;17847;31.524;74.366;2023-08-07T11:47:33;97029.38;;;32.77;87.24
31225;BME280;17847;31.524;74.366;2023-08-07T11:50:03;97019.31;;;32.55;86.20
31225;BME280;17847;31.524;74.366;2023-08-07T11:52:33;97018.88;;;32.49;85.95
31225;BME280;17847;31.524;74.366;2023-08-07T11:55:03;97022.03;;;32.51;85.60
31225;BME280;17847;31.524;74.366;2023-08-07T11:57:33;97019.56;;;32.39;87.01
31225;BME280;17847;31.524;74.366;2023-08-07T12:00:02;97017.19;;;32.38;85.53
31225;BME280;17847;31.524;74.366;2023-08-07T12:02:40;97018.81;;;32.42;87.00
31225;BME280;17847;31.524;74.366;2023-08-07T12:05:10;97022.66;;;32.34;88.66
31225;BME280;17847;31.524;74.366;2023-08-07T12:07:40;97014.47;;;32.38;88.34
31225;BME280;17847;31.524;74.366;2023-08-07T12:10:10;97022.66;;;32.34;89.85
31225;BME280;17847;31.524;74.366;2023-08-07T12:12:40;97017.81;;;32.21;88.89
31225;BME280;17847;31.524;74.366;2023-08-07T12:15:09;97018.13;;;32.16;89.66
31225;BME280;17847;31.524;74.366;2023-08-07T12:17:39;97016.97;;;32.17;90.31
31225;BME280;17847;31.524;74.366;2023-08-07T12:20:16;97011.41;;;32.09;91.31
31225;BME280;17847;31.524;74.366;2023-08-07T12:22:46;97007.41;;;32.03;92.03
31225;BME280;17847;31.524;74.366;2023-08-07T12:25:17;97019.84;;;31.97;91.86
31225;BME280;17847;31.524;74.366;2023-08-07T12:27:46;97007.69;;;31.95;91.56
31225;BME280;17847;31.524;74.366;2023-08-07T12:30:17;97007.34;;;32.00;91.38
31225;BME280;17847;31.524;74.366;2023-08-07T12:32:46;97007.72;;;31.98;90.84
31225;BME280;17847;31.524;74.366;2023-08-07T12:35:15;97016.81;;;32.06;93.13
31225;BME280;17847;31.524;74.366;2023-08-07T12:37:45;97015.34;;;32.12;92.00
31225;BME280;17847;31.524;74.366;2023-08-07T12:40:33;97014.97;;;32.14;92.29
31225;BME280;17847;31.524;74.366;2023-08-07T12:43:05;97010.69;;;32.16;95.16
31225;BME280;17847;31.524;74.366;2023-08-07T12:45:35;97016.94;;;32.13;91.72
31225;BME280;17847;31.524;74.366;2023-08-07T12:48:08;97017.69;;;32.14;91.17
31225;BME280;17847;31.524;74.366;2023-08-07T12:50:38;97015.44;;;32.19;92.81
31225;BME280;17847;31.524;74.366;2023-08-07T12:53:08;97009.97;;;32.23;94.82
31225;BME280;17847;31.524;74.366;2023-08-07T12:55:37;97012.72;;;32.23;93.60
31225;BME280;17847;31.524;74.366;2023-08-07T12:58:07;97013.13;;;32.21;94.39
31225;BME280;17847;31.524;74.366;2023-08-07T13:00:36;97011.91;;;32.19;94.70
31225;BME280;17847;31.524;74.366;2023-08-07T13:03:07;97015.03;;;32.17;94.91
31225;BME280;17847;31.524;74.366;2023-08-07T13:05:37;97021.66;;;32.16;95.05
31225;BME280;17847;31.524;74.366;2023-08-07T13:08:24;97019.28;;;32.15;95.56
31225;BME280;17847;31.524;74.366;2023-08-07T13:10:54;97024.72;;;32.11;98.82
31225;BME280;17847;31.524;74.366;2023-08-07T13:13:24;97023.94;;;32.11;96.28
31225;BME280;17847;31.524;74.366;2023-08-07T13:15:54;97016.81;;;32.06;95.78
31225;BME280;17847;31.524;74.366;2023-08-07T13:18:24;97016.88;;;32.09;99.06
31225;BME280;17847;31.524;74.366;2023-08-07T13:20:54;97015.72;;;32.11;99.32
31225;BME280;17847;31.524;74.366;2023-08-07T13:23:25;97015.63;;;32.03;99.27
31225;BME280;17847;31.524;74.366;2023-08-07T13:25:54;97019.56;;;32.06;98.60
31225;BME280;17847;31.524;74.366;2023-08-07T13:28:24;97035.63;;;32.07;99.53
31225;BME280;17847;31.524;74.366;2023-08-07T13:30:55;97034.41;;;32.05;99.78
31225;BME280;17847;31.524;74.366;2023-08-07T13:33:25;97033.59;;;32.04;98.59